createdAt,value
2018-09-09T00:00:48.398Z,2.70
2018-09-09T00:03:17.067Z,1.70
2018-09-09T00:05:45.478Z,1.57
2018-09-09T00:08:13.987Z,1.97
2018-09-09T00:10:42.435Z,2.20
2018-09-09T00:13:10.910Z,2.03
2018-09-09T00:15:39.331Z,2.23
2018-09-09T00:18:07.731Z,2.40
2018-09-09T00:20:36.142Z,2.73
2018-09-09T00:23:04.769Z,1.80
2018-09-09T00:25:33.306Z,1.70
2018-09-09T00:28:01.762Z,2.23
2018-09-09T00:30:30.446Z,2.10
2018-09-09T00:32:58.862Z,1.83
2018-09-09T00:35:27.388Z,2.03
2018-09-09T00:37:55.792Z,1.90
2018-09-09T00:40:24.227Z,2.60
2018-09-09T00:42:52.854Z,2.30
2018-09-09T00:45:21.637Z,1.87
2018-09-09T00:47:50.121Z,2.50
2018-09-09T00:50:23.771Z,1.97
2018-09-09T00:52:57.596Z,2.33
2018-09-09T00:55:26.247Z,2.57
2018-09-09T00:57:54.785Z,2.10
2018-09-09T01:00:28.759Z,2.53
2018-09-09T01:02:57.164Z,2.10
2018-09-09T01:05:25.658Z,2.50
2018-09-09T01:07:54.189Z,1.80
2018-09-09T01:10:22.659Z,2.23
2018-09-09T01:12:51.151Z,2.67
2018-09-09T01:15:19.671Z,2.90
2018-09-09T01:17:48.193Z,2.17
2018-09-09T01:20:16.879Z,2.43
2018-09-09T01:22:45.563Z,2.53
2018-09-09T01:25:14.059Z,2.00
2018-09-09T01:27:42.458Z,2.13
2018-09-09T01:30:10.939Z,3.00
2018-09-09T01:32:39.439Z,2.63
2018-09-09T01:35:07.914Z,2.63
2018-09-09T01:37:36.430Z,2.83
2018-09-09T01:40:04.915Z,2.30
2018-09-09T01:42:33.322Z,2.07
2018-09-09T01:45:01.859Z,2.80
2018-09-09T01:47:30.400Z,2.63
2018-09-09T01:49:58.870Z,2.40
2018-09-09T01:52:27.635Z,2.50
2018-09-09T01:54:56.070Z,2.23
2018-09-09T01:57:24.820Z,2.93
2018-09-09T01:59:53.290Z,2.40
2018-09-09T02:02:21.799Z,1.77
2018-09-09T02:04:50.291Z,2.53
2018-09-09T02:07:18.781Z,2.30
2018-09-09T02:09:47.194Z,1.90
2018-09-09T02:12:15.639Z,1.90
2018-09-09T02:14:44.315Z,2.57
2018-09-09T02:17:12.858Z,2.07
2018-09-09T02:19:41.236Z,2.00
2018-09-09T02:22:09.933Z,1.80
2018-09-09T02:24:38.382Z,2.10
2018-09-09T02:27:06.803Z,1.87
2018-09-09T02:29:35.574Z,1.80
2018-09-09T02:32:04.007Z,2.30
2018-09-09T02:34:32.463Z,2.10
2018-09-09T02:37:01.148Z,2.30
2018-09-09T02:39:29.583Z,2.60
2018-09-09T02:41:58.056Z,2.57
2018-09-09T02:44:26.635Z,2.20
2018-09-09T02:46:55.039Z,2.67
2018-09-09T02:49:23.443Z,2.70
2018-09-09T02:51:52.227Z,2.17
2018-09-09T02:54:20.679Z,2.30
2018-09-09T02:56:49.106Z,2.10
2018-09-09T02:59:17.540Z,2.30
2018-09-09T03:01:45.942Z,2.33
2018-09-09T03:04:14.414Z,2.70
2018-09-09T03:06:43.007Z,2.27
2018-09-09T03:09:11.495Z,2.73
2018-09-09T03:11:39.983Z,2.17
2018-09-09T03:14:08.667Z,3.17
2018-09-09T03:16:37.159Z,2.53
2018-09-09T03:19:05.712Z,2.03
2018-09-09T03:21:34.338Z,2.13
2018-09-09T03:24:02.782Z,2.40
2018-09-09T03:26:31.286Z,2.50
2018-09-09T03:28:59.915Z,3.03
2018-09-09T03:31:28.379Z,2.50
2018-09-09T03:33:56.839Z,2.70
2018-09-09T03:36:25.822Z,3.30
2018-09-09T03:38:54.243Z,2.60
2018-09-09T03:41:22.658Z,2.57
2018-09-09T03:43:51.295Z,2.43
2018-09-09T03:46:19.839Z,2.50
2018-09-09T03:48:48.255Z,2.37
2018-09-09T03:51:17.314Z,3.07
2018-09-09T03:53:45.819Z,2.70
2018-09-09T03:56:14.294Z,1.73
2018-09-09T03:58:42.708Z,3.23
2018-09-09T04:01:11.238Z,2.77
2018-09-09T04:03:39.678Z,3.00
2018-09-09T04:06:08.251Z,2.77
2018-09-09T04:08:36.675Z,2.27
2018-09-09T04:11:08.884Z,2.40
2018-09-09T04:13:38.515Z,2.13
2018-09-09T04:16:07.523Z,2.77
2018-09-09T04:18:36.204Z,2.80
2018-09-09T04:21:04.639Z,3.10
2018-09-09T04:23:33.023Z,3.10
2018-09-09T04:26:01.739Z,2.10
2018-09-09T04:28:30.198Z,2.53
2018-09-09T04:30:58.746Z,2.73
2018-09-09T04:33:27.328Z,2.50
2018-09-09T04:35:55.872Z,2.20
2018-09-09T04:38:24.419Z,3.10
2018-09-09T04:40:52.883Z,2.03
2018-09-09T04:43:21.324Z,2.70
2018-09-09T04:45:49.767Z,3.03
2018-09-09T04:48:18.250Z,3.07
2018-09-09T04:50:46.639Z,2.87
2018-09-09T04:53:15.103Z,2.63
2018-09-09T04:55:43.531Z,3.40
2018-09-09T04:58:11.939Z,2.53
2018-09-09T05:00:40.403Z,2.90
2018-09-09T05:03:08.827Z,2.90
2018-09-09T05:05:37.228Z,3.37
2018-09-09T05:08:05.872Z,3.13
2018-09-09T05:10:34.375Z,3.30
2018-09-09T05:13:02.880Z,2.80
2018-09-09T05:15:31.346Z,2.67
2018-09-09T05:18:00.011Z,2.23
2018-09-09T05:20:28.518Z,3.30
2018-09-09T05:22:57.027Z,3.33
2018-09-09T05:25:25.703Z,3.20
2018-09-09T05:27:54.143Z,3.47
2018-09-09T05:30:22.631Z,3.43
2018-09-09T05:32:51.295Z,3.20
2018-09-09T05:35:19.867Z,2.40
2018-09-09T05:37:48.269Z,2.57
2018-09-09T05:40:16.810Z,2.77
2018-09-09T05:42:45.227Z,2.60
2018-09-09T05:45:13.728Z,2.93
2018-09-09T05:47:42.274Z,2.70
2018-09-09T05:50:10.781Z,2.40
2018-09-09T05:52:39.283Z,3.20
2018-09-09T05:55:07.791Z,2.73
2018-09-09T05:57:36.268Z,2.60
2018-09-09T06:00:04.818Z,2.03
2018-09-09T06:02:33.308Z,2.73
2018-09-09T06:05:01.848Z,2.03
2018-09-09T06:07:30.338Z,2.30
2018-09-09T06:09:59.106Z,2.00
2018-09-09T06:12:28.153Z,2.30
2018-09-09T06:14:56.783Z,1.73
2018-09-09T06:17:25.242Z,2.77
2018-09-09T06:19:53.831Z,2.80
2018-09-09T06:22:22.396Z,3.33
2018-09-09T06:24:51.094Z,3.20
2018-09-09T06:27:19.655Z,3.00
2018-09-09T06:29:48.114Z,3.43
2018-09-09T06:32:16.895Z,3.33
2018-09-09T06:34:45.323Z,3.47
2018-09-09T06:37:13.832Z,3.03
2018-09-09T06:39:42.525Z,3.23
2018-09-09T06:42:10.943Z,3.03
2018-09-09T06:44:39.623Z,3.60
2018-09-09T06:47:08.126Z,3.63
2018-09-09T06:49:36.711Z,3.10
2018-09-09T06:52:05.306Z,2.93
2018-09-09T06:54:33.942Z,2.80
2018-09-09T06:57:02.422Z,3.33
2018-09-09T06:59:30.873Z,2.80
2018-09-09T07:01:59.387Z,3.77
2018-09-09T07:04:27.879Z,3.23
2018-09-09T07:06:56.363Z,3.60
2018-09-09T07:09:25.100Z,3.40
2018-09-09T07:11:53.599Z,2.70
2018-09-09T07:14:22.240Z,3.03
2018-09-09T07:16:50.918Z,3.67
2018-09-09T07:19:19.422Z,3.67
2018-09-09T07:21:47.961Z,3.33
2018-09-09T07:24:16.582Z,3.27
2018-09-09T07:26:45.002Z,2.80
2018-09-09T07:29:13.412Z,2.77
2018-09-09T07:31:42.188Z,2.47
2018-09-09T07:34:10.769Z,3.23
2018-09-09T07:36:39.295Z,3.10
2018-09-09T07:39:08.179Z,2.40
2018-09-09T07:41:36.654Z,3.67
2018-09-09T07:44:05.208Z,3.43
2018-09-09T07:46:34.016Z,3.10
2018-09-09T07:49:02.591Z,2.90
2018-09-09T07:51:31.007Z,2.70
2018-09-09T07:53:59.539Z,2.50
2018-09-09T07:56:27.980Z,2.87
2018-09-09T07:58:56.443Z,2.63
2018-09-09T08:01:25.134Z,2.83
2018-09-09T08:03:53.643Z,2.73
2018-09-09T08:06:22.166Z,2.33
2018-09-09T08:08:50.758Z,2.47
2018-09-09T08:11:19.223Z,2.40
2018-09-09T08:13:47.638Z,1.73
2018-09-09T08:16:16.155Z,2.50
2018-09-09T08:18:44.636Z,1.77
2018-09-09T08:21:13.141Z,1.80
2018-09-09T08:23:42.155Z,1.70
2018-09-09T08:26:10.623Z,1.57
2018-09-09T08:28:39.138Z,2.47
2018-09-09T08:31:07.762Z,2.67
2018-09-09T08:33:36.432Z,1.97
2018-09-09T08:36:04.928Z,1.77
2018-09-09T08:38:33.439Z,2.30
2018-09-09T08:41:01.996Z,2.33
2018-09-09T08:43:30.407Z,1.80
2018-09-09T08:45:58.920Z,1.87
2018-09-09T08:48:27.487Z,1.63
2018-09-09T08:50:55.955Z,1.70
2018-09-09T08:53:24.635Z,1.87
2018-09-09T08:55:53.271Z,1.90
2018-09-09T08:58:23.472Z,2.43
2018-09-09T09:00:52.662Z,1.47
2018-09-09T09:03:21.131Z,1.80
2018-09-09T09:05:49.672Z,1.63
2018-09-09T09:08:18.471Z,1.20
2018-09-09T09:10:47.138Z,1.40
2018-09-09T09:13:15.563Z,1.40
2018-09-09T09:15:44.027Z,1.40
2018-09-09T09:18:12.566Z,1.50
2018-09-09T09:20:41.199Z,1.70
2018-09-09T09:23:09.831Z,1.30
2018-09-09T09:25:42.442Z,1.83
2018-09-09T09:28:11.141Z,1.33
2018-09-09T09:30:39.702Z,0.93
2018-09-09T09:33:08.154Z,1.53
2018-09-09T09:35:42.091Z,1.50
2018-09-09T09:38:10.603Z,1.53
2018-09-09T09:40:39.038Z,1.00
2018-09-09T09:43:07.572Z,1.10
2018-09-09T09:45:35.983Z,1.87
2018-09-09T09:48:04.457Z,3.30
2018-09-09T09:50:33.283Z,1.43
2018-09-09T09:53:01.982Z,1.30
2018-09-09T09:55:30.463Z,0.93
2018-09-09T09:57:59.820Z,1.30
2018-09-09T10:00:33.552Z,1.33
2018-09-09T10:03:02.598Z,0.90
2018-09-09T10:05:31.366Z,1.37
2018-09-09T10:07:59.928Z,0.90
2018-09-09T10:10:28.523Z,0.70
2018-09-09T10:12:57.059Z,1.20
2018-09-09T10:15:26.715Z,1.10
2018-09-09T10:17:55.427Z,0.90
2018-09-09T10:20:23.859Z,1.00
2018-09-09T10:22:52.350Z,0.93
2018-09-09T10:25:21.223Z,1.20
2018-09-09T10:27:49.657Z,1.40
2018-09-09T10:30:18.096Z,0.80
2018-09-09T10:32:46.691Z,0.93
2018-09-09T10:35:15.292Z,1.00
2018-09-09T10:37:44.137Z,1.00
2018-09-09T10:40:13.135Z,0.80
2018-09-09T10:42:41.603Z,1.00
2018-09-09T10:45:10.036Z,1.10
2018-09-09T10:47:38.603Z,0.97
2018-09-09T10:50:07.678Z,0.90
2018-09-09T10:52:36.255Z,0.93
2018-09-09T10:55:05.046Z,1.10
2018-09-09T10:57:33.561Z,1.10
2018-09-09T11:00:02.120Z,1.00
2018-09-09T11:02:30.875Z,1.23
2018-09-09T11:04:59.435Z,0.70
2018-09-09T11:07:28.055Z,0.60
2018-09-09T11:09:56.727Z,1.10
2018-09-09T11:12:30.071Z,0.77
2018-09-09T11:15:00.004Z,0.63
2018-09-09T11:17:29.313Z,0.70
2018-09-09T11:19:58.191Z,0.90
2018-09-09T11:22:27.696Z,0.63
2018-09-09T11:24:56.192Z,0.73
2018-09-09T11:27:25.217Z,0.70
2018-09-09T11:29:53.896Z,0.97
2018-09-09T11:32:22.403Z,1.27
2018-09-09T11:34:51.426Z,0.80
2018-09-09T11:37:19.897Z,1.10
2018-09-09T11:39:52.883Z,1.30
2018-09-09T11:42:21.734Z,0.80
2018-09-09T11:44:50.215Z,0.80
2018-09-09T11:47:18.778Z,0.80
2018-09-09T11:49:47.330Z,0.87
2018-09-09T11:52:15.900Z,0.77
2018-09-09T11:54:44.438Z,0.80
2018-09-09T11:57:13.210Z,0.90
2018-09-09T11:59:41.757Z,0.77
2018-09-09T12:02:10.308Z,0.60
2018-09-09T12:04:38.758Z,1.00
2018-09-09T12:07:07.331Z,1.10
2018-09-09T12:09:36.051Z,0.93
2018-09-09T12:12:04.896Z,0.70
2018-09-09T12:14:33.306Z,0.60
2018-09-09T12:17:07.787Z,1.10
2018-09-09T12:19:36.199Z,0.70
2018-09-09T12:22:04.869Z,2.17
2018-09-09T12:24:33.901Z,0.93
2018-09-09T12:27:02.403Z,0.83
2018-09-09T12:29:31.512Z,0.80
2018-09-09T12:32:00.424Z,0.90
2018-09-09T12:34:30.160Z,0.60
2018-09-09T12:36:58.593Z,1.23
2018-09-09T12:39:27.696Z,1.00
2018-09-09T12:41:57.148Z,0.63
2018-09-09T12:44:31.033Z,0.80
2018-09-09T12:47:04.892Z,0.93
2018-09-09T12:49:33.598Z,1.23
2018-09-09T12:52:02.391Z,0.80
2018-09-09T12:54:31.071Z,1.00
2018-09-09T12:56:59.822Z,0.73
2018-09-09T12:59:28.276Z,0.80
2018-09-09T13:01:56.871Z,0.73
2018-09-09T13:04:25.490Z,0.83
2018-09-09T13:06:53.919Z,1.10
2018-09-09T13:09:22.555Z,0.90
2018-09-09T13:11:51.232Z,0.87
2018-09-09T13:14:19.706Z,1.13
2018-09-09T13:16:48.211Z,1.00
2018-09-09T13:19:16.696Z,0.70
2018-09-09T13:21:45.126Z,0.80
2018-09-09T13:24:13.566Z,0.90
2018-09-09T13:26:42.344Z,0.90
2018-09-09T13:29:10.978Z,0.60
2018-09-09T13:31:39.900Z,0.70
2018-09-09T13:34:08.648Z,0.80
2018-09-09T13:36:37.083Z,0.70
2018-09-09T13:39:07.435Z,1.00
2018-09-09T13:41:35.935Z,1.00
2018-09-09T13:44:04.647Z,1.17
2018-09-09T13:46:33.120Z,0.93
2018-09-09T13:49:01.867Z,0.63
2018-09-09T13:51:30.285Z,0.90
2018-09-09T13:53:58.695Z,0.70
2018-09-09T13:56:27.367Z,0.87
2018-09-09T13:58:55.934Z,0.90
2018-09-09T14:01:24.388Z,0.50
2018-09-09T14:03:53.119Z,0.83
2018-09-09T14:06:21.870Z,0.57
2018-09-09T14:08:50.267Z,0.70
2018-09-09T14:11:19.052Z,0.70
2018-09-09T14:13:47.587Z,0.60
2018-09-09T14:16:16.062Z,0.83
2018-09-09T14:18:44.725Z,0.83
2018-09-09T14:21:13.259Z,1.00
2018-09-09T14:23:41.731Z,1.00
2018-09-09T14:26:10.306Z,0.77
2018-09-09T14:28:38.934Z,0.60
2018-09-09T14:31:07.475Z,0.77
2018-09-09T14:33:36.049Z,0.73
2018-09-09T14:36:05.780Z,0.63
2018-09-09T14:38:34.160Z,0.60
2018-09-09T14:41:02.740Z,0.60
2018-09-09T14:43:31.175Z,0.67
2018-09-09T14:46:00.982Z,0.80
2018-09-09T14:48:29.379Z,1.13
2018-09-09T14:50:57.808Z,0.80
2018-09-09T14:53:26.363Z,0.67
2018-09-09T14:55:54.943Z,0.77
2018-09-09T14:58:24.787Z,0.83
2018-09-09T15:00:53.318Z,0.80
2018-09-09T15:03:22.699Z,0.70
2018-09-09T15:05:51.190Z,0.93
2018-09-09T15:08:19.780Z,0.60
2018-09-09T15:10:48.595Z,0.60
2018-09-09T15:13:17.767Z,0.70
2018-09-09T15:15:46.271Z,0.70
2018-09-09T15:18:14.819Z,1.00
2018-09-09T15:20:43.398Z,0.60
2018-09-09T15:23:11.847Z,0.50
2018-09-09T15:25:40.351Z,0.80
2018-09-09T15:28:08.866Z,1.10
2018-09-09T15:30:37.355Z,0.93
2018-09-09T15:33:05.997Z,0.57
2018-09-09T15:35:34.524Z,0.63
2018-09-09T15:38:03.036Z,0.73
2018-09-09T15:40:31.532Z,0.60
2018-09-09T15:43:00.003Z,0.50
2018-09-09T15:45:28.519Z,0.70
2018-09-09T15:47:57.075Z,1.00
2018-09-09T15:50:25.495Z,0.60
2018-09-09T15:52:54.042Z,0.73
2018-09-09T15:55:22.612Z,0.60
2018-09-09T15:57:51.132Z,1.03
2018-09-09T16:00:19.629Z,0.80
2018-09-09T16:02:48.246Z,0.70
2018-09-09T16:05:16.659Z,0.60
2018-09-09T16:07:45.139Z,0.60
2018-09-09T16:10:13.600Z,0.60
2018-09-09T16:12:42.301Z,1.27
2018-09-09T16:15:10.701Z,0.60
2018-09-09T16:17:39.291Z,0.40
2018-09-09T16:20:08.487Z,0.80
2018-09-09T16:22:36.927Z,0.40
2018-09-09T16:25:05.465Z,0.50
2018-09-09T16:27:34.052Z,0.60
2018-09-09T16:30:02.474Z,0.70
2018-09-09T16:32:31.170Z,0.97
2018-09-09T16:34:59.600Z,0.60
2018-09-09T16:37:28.087Z,1.00
2018-09-09T16:39:56.633Z,0.53
2018-09-09T16:42:25.095Z,0.67
2018-09-09T16:44:53.624Z,0.80
2018-09-09T16:47:22.191Z,0.63
2018-09-09T16:49:50.718Z,0.80
2018-09-09T16:52:19.197Z,1.03
2018-09-09T16:54:47.946Z,0.70
2018-09-09T16:57:16.363Z,0.60
2018-09-09T16:59:44.879Z,0.67
2018-09-09T17:02:13.683Z,0.60
2018-09-09T17:04:42.160Z,1.07
2018-09-09T17:07:10.659Z,0.83
2018-09-09T17:09:39.335Z,0.50
2018-09-09T17:12:07.864Z,0.80
2018-09-09T17:14:36.270Z,0.77
2018-09-09T17:17:04.995Z,0.70
2018-09-09T17:19:33.447Z,1.10
2018-09-09T17:22:01.941Z,0.80
2018-09-09T17:24:30.594Z,0.80
2018-09-09T17:26:59.156Z,0.80
2018-09-09T17:29:28.280Z,0.80
2018-09-09T17:31:57.043Z,1.23
2018-09-09T17:34:25.507Z,1.13
2018-09-09T17:36:54.015Z,0.90
2018-09-09T17:39:22.719Z,0.80
2018-09-09T17:41:51.318Z,0.77
2018-09-09T17:44:19.831Z,0.60
2018-09-09T17:46:48.348Z,0.80
2018-09-09T17:49:16.809Z,1.23
2018-09-09T17:51:45.304Z,1.33
2018-09-09T17:54:14.085Z,0.80
2018-09-09T17:56:42.943Z,0.90
2018-09-09T17:59:11.485Z,0.73
2018-09-09T18:01:40.247Z,0.90
2018-09-09T18:04:08.730Z,0.80
2018-09-09T18:06:37.295Z,1.00
2018-09-09T18:09:07.983Z,1.00
2018-09-09T18:11:36.835Z,0.70
2018-09-09T18:14:05.566Z,0.90
2018-09-09T18:16:34.392Z,0.80
2018-09-09T18:19:03.038Z,1.50
2018-09-09T18:21:31.551Z,0.63
2018-09-09T18:24:01.009Z,0.70
2018-09-09T18:26:29.516Z,6.53
2018-09-09T18:28:58.019Z,1.47
2018-09-09T18:31:27.050Z,0.83
2018-09-09T18:33:55.572Z,1.00
2018-09-09T18:36:24.036Z,1.03
2018-09-09T18:38:52.632Z,0.80
2018-09-09T18:41:21.152Z,1.03
2018-09-09T18:43:49.787Z,0.50
2018-09-09T18:46:18.366Z,0.70
2018-09-09T18:48:47.464Z,0.70
2018-09-09T18:51:16.846Z,0.87
2018-09-09T18:53:49.731Z,1.00
2018-09-09T18:56:18.400Z,1.30
2018-09-09T18:58:46.940Z,0.80
2018-09-09T19:01:15.622Z,1.00
2018-09-09T19:03:44.484Z,0.93
2018-09-09T19:06:13.046Z,1.33
2018-09-09T19:08:42.109Z,1.07
2018-09-09T19:11:10.632Z,1.27
2018-09-09T19:13:39.210Z,0.70
2018-09-09T19:16:08.362Z,0.73
2018-09-09T19:18:37.823Z,0.60
2018-09-09T19:21:06.334Z,0.87
2018-09-09T19:23:35.294Z,1.10
2018-09-09T19:26:04.160Z,1.37
2018-09-09T19:28:32.991Z,0.70
2018-09-09T19:31:02.061Z,0.70
2018-09-09T19:33:30.856Z,0.67
2018-09-09T19:35:59.755Z,0.90
2018-09-09T19:38:28.358Z,1.00
2018-09-09T19:40:57.010Z,0.90
2018-09-09T19:43:25.558Z,1.43
2018-09-09T19:45:54.792Z,1.07
2018-09-09T19:48:23.507Z,1.10
2018-09-09T19:50:52.119Z,0.80
2018-09-09T19:53:20.908Z,1.00
2018-09-09T19:55:49.371Z,1.90
2018-09-09T19:58:17.904Z,0.87
2018-09-09T20:00:46.520Z,0.80
2018-09-09T20:03:15.049Z,1.10
2018-09-09T20:05:43.533Z,0.87
2018-09-09T20:08:12.183Z,0.90
2018-09-09T20:10:40.720Z,1.10
2018-09-09T20:13:10.107Z,0.87
2018-09-09T20:15:38.950Z,0.77
2018-09-09T20:18:07.875Z,1.20
2018-09-09T20:20:36.427Z,0.90
2018-09-09T20:23:05.090Z,1.27
2018-09-09T20:25:33.652Z,1.67
2018-09-09T20:28:02.124Z,0.90
2018-09-09T20:30:30.657Z,0.60
2018-09-09T20:32:59.248Z,0.93
2018-09-09T20:35:27.762Z,1.10
2018-09-09T20:37:56.302Z,0.83
2018-09-09T20:40:25.767Z,1.00
2018-09-09T20:42:54.260Z,1.10
2018-09-09T20:45:22.976Z,1.20
2018-09-09T20:47:51.583Z,1.60
2018-09-09T20:50:20.047Z,1.00
2018-09-09T20:52:48.578Z,0.80
2018-09-09T20:55:17.099Z,1.10
2018-09-09T20:57:45.514Z,0.90
2018-09-09T21:00:14.155Z,1.00
2018-09-09T21:02:42.622Z,1.47
2018-09-09T21:05:11.190Z,1.37
2018-09-09T21:07:39.923Z,1.30
2018-09-09T21:10:08.454Z,1.10
2018-09-09T21:12:36.891Z,0.83
2018-09-09T21:15:07.211Z,1.37
2018-09-09T21:17:36.226Z,0.83
2018-09-09T21:20:05.032Z,1.30
2018-09-09T21:22:33.771Z,1.83
2018-09-09T21:25:02.627Z,0.90
2018-09-09T21:27:31.071Z,1.63
2018-09-09T21:29:59.689Z,1.17
2018-09-09T21:32:28.115Z,1.10
2018-09-09T21:34:56.594Z,1.27
2018-09-09T21:37:25.042Z,1.10
2018-09-09T21:39:53.582Z,1.20
2018-09-09T21:42:22.022Z,1.30
2018-09-09T21:44:50.591Z,1.80
2018-09-09T21:47:18.999Z,1.10
2018-09-09T21:49:47.474Z,1.30
2018-09-09T21:52:16.207Z,1.23
2018-09-09T21:54:44.747Z,1.47
2018-09-09T21:57:13.251Z,0.90
2018-09-09T21:59:41.886Z,1.40
2018-09-09T22:02:10.318Z,1.30
2018-09-09T22:04:39.250Z,1.53
2018-09-09T22:07:11.970Z,0.90
2018-09-09T22:09:41.867Z,1.10
2018-09-09T22:12:11.198Z,1.40
2018-09-09T22:14:40.110Z,1.20
2018-09-09T22:17:09.338Z,1.20
2018-09-09T22:19:37.775Z,1.00
2018-09-09T22:22:06.246Z,1.13
2018-09-09T22:24:34.740Z,1.20
2018-09-09T22:27:03.429Z,0.97
2018-09-09T22:29:31.851Z,1.20
2018-09-09T22:32:00.274Z,1.20
2018-09-09T22:34:28.810Z,0.93
2018-09-09T22:36:57.322Z,1.27
2018-09-09T22:39:25.715Z,1.57
2018-09-09T22:41:54.385Z,1.23
2018-09-09T22:44:22.897Z,1.87
2018-09-09T22:46:51.470Z,1.20
2018-09-09T22:49:20.170Z,1.10
2018-09-09T22:51:48.682Z,1.63
2018-09-09T22:54:17.175Z,1.13
2018-09-09T22:56:45.726Z,1.10
2018-09-09T22:59:14.250Z,1.37
2018-09-09T23:01:42.766Z,1.17
2018-09-09T23:04:11.434Z,1.23
2018-09-09T23:06:39.863Z,1.20
2018-09-09T23:09:10.438Z,1.00
2018-09-09T23:11:38.903Z,1.10
2018-09-09T23:14:07.634Z,1.23
2018-09-09T23:16:36.371Z,0.90
2018-09-09T23:19:04.928Z,1.53
2018-09-09T23:21:33.378Z,1.60
2018-09-09T23:24:02.059Z,1.10
2018-09-09T23:26:30.458Z,1.50
2018-09-09T23:28:58.964Z,1.17
2018-09-09T23:31:27.562Z,1.60
2018-09-09T23:33:56.176Z,1.17
2018-09-09T23:36:24.750Z,1.60
2018-09-09T23:38:53.514Z,1.07
2018-09-09T23:41:21.966Z,1.00
2018-09-09T23:43:50.378Z,1.10
2018-09-09T23:46:19.028Z,1.30
2018-09-09T23:48:47.539Z,1.53
2018-09-09T23:51:16.005Z,1.37
2018-09-09T23:53:44.714Z,1.20
2018-09-09T23:56:13.106Z,1.07
2018-09-09T23:58:41.595Z,0.93
